Bonaventure Airport


Codes: CYVB/YVB
Name: Bonaventure Airport
City: Bonaventure
Country: Canada
Elevation: 123 ft.
Wikipedia:

Photos at Bonaventure Airport


   Photos courtesy of SpottingLog. You can add your own sightings and photos by signing up for a free trial today.



C-FBQX, 23-Aug-2023
© Mackenzie Cole

C-FZWE, 23-Aug-2023
© Mackenzie Cole

C-GGDO, 23-Aug-2023
© Mackenzie Cole


Weather at Bonaventure Airport


Time (UTC)DescriptionTempratureWindCloud coverageVisibilityPressureHumidity
18-Apr-2024 00:00Overcast Clouds4°C7 mph, N89%10000m1021hPa80%
18-Apr-2024 03:00Broken Clouds3°C7 mph, N63%10000m1022hPa85%
18-Apr-2024 06:00Scattered Clouds1°C7 mph, NW42%10000m1024hPa91%
18-Apr-2024 09:00Few Clouds0°C4 mph, N24%10000m1024hPa88%
18-Apr-2024 12:00Few Clouds3°C7 mph, N18%10000m1025hPa69%
18-Apr-2024 15:00Few Clouds5°C2 mph, W16%10000m1025hPa61%
18-Apr-2024 18:00Scattered Clouds5°C7 mph, SE43%10000m1024hPa67%
18-Apr-2024 21:00Broken Clouds4°C7 mph, SE61%10000m1023hPa67%
19-Apr-2024 00:00Broken Clouds2°C2 mph, E81%10000m1024hPa75%
19-Apr-2024 03:00Overcast Clouds2°C2 mph, NW100%10000m1024hPa76%
19-Apr-2024 06:00Overcast Clouds1°C4 mph, N100%10000m1023hPa76%
19-Apr-2024 09:00Overcast Clouds1°C2 mph, N99%10000m1023hPa74%
19-Apr-2024 12:00Overcast Clouds3°C2 mph, SW96%10000m1024hPa66%
19-Apr-2024 15:00Overcast Clouds4°C4 mph, SE100%10000m1022hPa63%
19-Apr-2024 18:00Overcast Clouds7°C9 mph, SE97%10000m1020hPa57%
19-Apr-2024 21:00Scattered Clouds5°C18 mph, E37%10000m1018hPa60%
20-Apr-2024 00:00Broken Clouds2°C11 mph, E63%10000m1018hPa72%
20-Apr-2024 03:00Overcast Clouds2°C9 mph, E100%10000m1015hPa78%
20-Apr-2024 06:00Light Rain2°C11 mph, SE100%10000m1013hPa86%
20-Apr-2024 09:00Light Rain2°C9 mph, SE100%7770m1010hPa93%
20-Apr-2024 12:00Light Rain3°C13 mph, S100%10000m1009hPa90%
20-Apr-2024 15:00Overcast Clouds5°C13 mph, SW100%10000m1007hPa79%
20-Apr-2024 18:00Overcast Clouds7°C9 mph, W99%10000m1005hPa61%
20-Apr-2024 21:00Overcast Clouds7°C11 mph, SW100%10000m1004hPa61%
21-Apr-2024 00:00Light Rain6°C11 mph, SW100%10000m1006hPa68%
21-Apr-2024 03:00Overcast Clouds3°C4 mph, W93%10000m1005hPa79%
21-Apr-2024 06:00Overcast Clouds3°C4 mph, NW96%10000m1003hPa78%
21-Apr-2024 09:00Overcast Clouds2°C7 mph, NW100%10000m1003hPa82%
21-Apr-2024 12:00Overcast Clouds3°C11 mph, W86%10000m1003hPa78%
21-Apr-2024 15:00Clear Sky5°C16 mph, W9%10000m1003hPa67%
21-Apr-2024 18:00Few Clouds6°C18 mph, W18%10000m1003hPa62%
21-Apr-2024 21:00Overcast Clouds6°C16 mph, SW100%10000m1004hPa63%
22-Apr-2024 00:00Overcast Clouds3°C9 mph, SW99%10000m1006hPa83%
22-Apr-2024 03:00Light Rain2°C9 mph, SW99%10000m1006hPa89%
22-Apr-2024 06:00Broken Clouds1°C7 mph, SW75%10000m1005hPa88%
22-Apr-2024 09:00Few Clouds1°C7 mph, SW14%10000m1004hPa89%
22-Apr-2024 12:00Scattered Clouds3°C13 mph, W36%10000m1005hPa87%
22-Apr-2024 15:00Overcast Clouds3°C18 mph, W100%10000m1006hPa58%
22-Apr-2024 18:00Overcast Clouds2°C22 mph, W100%10000m1009hPa44%
22-Apr-2024 21:00Clear Sky1°C22 mph, NW4%10000m1013hPa40%